Time;durP1;ratioP1;P1;durP2;ratioP2;P2;SDS_P1;SDS_P2;PMS_P1;PMS_P2;Temp;Humidity;BMP_temperature;BMP_pressure;BME280_temperature;BME280_humidity;BME280_pressure;Samples;Min_cycle;Max_cycle;Signal;HPM_P1;HPM_P2
2024/01/06 00:00:35;;;;;;;21.75;12.85;;;;;;;6.44;100.00;100201.38;5090404;28;20032;-59
2024/01/06 00:03:01;;;;;;;21.98;13.00;;;;;;;6.42;100.00;100197.97;5090475;28;20020;-59
2024/01/06 00:05:26;;;;;;;21.25;12.52;;;;;;;6.46;100.00;100213.56;5091964;28;20486;-59
2024/01/06 00:07:52;;;;;;;19.20;12.73;;;;;;;6.47;100.00;100217.03;5090446;28;20085;-59
2024/01/06 00:10:17;;;;;;;17.50;12.10;;;;;;;6.42;100.00;100222.59;5091429;28;20038;-59
2024/01/06 00:12:43;;;;;;;19.05;12.15;;;;;;;6.39;100.00;100222.78;5091629;28;20659;-59
2024/01/06 00:15:08;;;;;;;20.75;11.88;;;;;;;6.46;100.00;100237.31;5091436;28;20024;-59
2024/01/06 00:17:34;;;;;;;18.08;11.77;;;;;;;6.45;100.00;100238.28;5091608;28;20028;-59
2024/01/06 00:20:00;;;;;;;20.73;12.45;;;;;;;6.43;100.00;100240.16;5090342;28;20034;-59
2024/01/06 00:22:25;;;;;;;21.17;13.05;;;;;;;6.38;100.00;100234.25;5090332;28;20039;-59
2024/01/06 00:24:51;;;;;;;21.50;13.25;;;;;;;6.42;100.00;100246.38;5090784;28;20034;-59
2024/01/06 00:27:21;;;;;;;22.65;13.88;;;;;;;6.41;100.00;100247.28;5090848;28;20031;-59
2024/01/06 00:29:47;;;;;;;22.88;13.07;;;;;;;6.30;100.00;100239.13;5089548;28;20031;-59
2024/01/06 00:32:14;;;;;;;21.95;13.63;;;;;;;6.35;100.00;100250.28;5089757;28;20020;-59
2024/01/06 00:34:40;;;;;;;21.75;13.60;;;;;;;6.32;100.00;100253.97;5089745;28;20031;-59
2024/01/06 00:37:05;;;;;;;21.38;13.32;;;;;;;6.28;100.00;100256.84;5089769;28;20386;-58
2024/01/06 00:39:31;;;;;;;20.30;13.00;;;;;;;6.25;100.00;100257.00;5089284;28;20034;-59
2024/01/06 00:41:56;;;;;;;20.65;13.90;;;;;;;6.24;100.00;100268.53;5091145;28;20023;-59
2024/01/06 00:44:21;;;;;;;24.30;15.27;;;;;;;6.18;100.00;100258.25;5090938;28;20403;-59
2024/01/06 00:46:47;;;;;;;26.23;15.77;;;;;;;6.18;100.00;100267.06;5089396;28;20031;-59
2024/01/06 00:49:12;;;;;;;23.23;14.55;;;;;;;6.09;100.00;100249.09;5089627;28;20119;-59
2024/01/06 00:51:38;;;;;;;24.25;14.93;;;;;;;6.13;100.00;100254.09;5091454;28;20452;-59
2024/01/06 00:54:03;;;;;;;25.77;16.42;;;;;;;6.07;100.00;100250.94;5091148;28;20027;-59
2024/01/06 00:56:28;;;;;;;26.10;15.02;;;;;;;6.07;100.00;100269.44;5089053;28;20047;-59
2024/01/06 00:58:54;;;;;;;26.63;15.77;;;;;;;6.07;100.00;100266.78;5089330;28;20051;-59
2024/01/06 01:01:19;;;;;;;25.58;14.80;;;;;;;6.06;100.00;100265.94;5090789;28;20028;-59
2024/01/06 01:03:45;;;;;;;26.17;14.65;;;;;;;6.02;100.00;100269.66;5091223;28;20028;-59
2024/01/06 01:06:10;;;;;;;24.88;13.77;;;;;;;5.97;100.00;100266.44;5089804;28;20478;-59
2024/01/06 01:08:35;;;;;;;26.67;14.82;;;;;;;5.95;100.00;100267.44;5089328;28;20070;-59
2024/01/06 01:11:03;;;;;;;25.05;13.13;;;;;;;5.97;100.00;100271.72;5089971;28;20074;-59
2024/01/06 01:13:29;;;;;;;25.20;14.00;;;;;;;5.99;100.00;100272.47;5089810;28;20506;-59
2024/01/06 01:15:54;;;;;;;27.15;14.73;;;;;;;6.01;100.00;100281.16;5089241;28;20216;-59
2024/01/06 01:18:22;;;;;;;25.92;14.05;;;;;;;5.98;100.00;100283.13;5089567;28;20028;-59
2024/01/06 01:20:50;;;;;;;22.02;13.55;;;;;;;5.93;100.00;100291.25;5089293;28;20023;-59
2024/01/06 01:23:15;;;;;;;25.73;13.02;;;;;;;5.97;100.00;100289.31;5089231;28;20052;-59
2024/01/06 01:25:40;;;;;;;24.63;14.52;;;;;;;5.90;100.00;100292.25;5090191;28;20051;-59
2024/01/06 01:28:06;;;;;;;23.38;14.27;;;;;;;5.87;100.00;100283.66;5088386;28;20040;-59
2024/01/06 01:30:32;;;;;;;22.85;14.07;;;;;;;5.89;100.00;100289.69;5088547;28;20024;-59
2024/01/06 01:32:58;;;;;;;26.55;14.90;;;;;;;5.89;100.00;100300.25;5088768;28;20038;-59
2024/01/06 01:35:23;;;;;;;21.70;13.27;;;;;;;5.85;100.00;100301.34;5090404;28;20032;-59
2024/01/06 01:37:51;;;;;;;27.02;14.85;;;;;;;5.89;100.00;100306.38;5088728;28;20012;-59
2024/01/06 01:40:16;;;;;;;26.45;15.30;;;;;;;5.88;100.00;100303.81;5089709;28;20024;-59
2024/01/06 01:42:45;;;;;;;25.00;13.68;;;;;;;5.88;100.00;100303.81;5088444;28;20065;-59
2024/01/06 01:45:10;;;;;;;26.13;14.48;;;;;;;5.92;100.00;100315.94;5090200;28;20047;-59
2024/01/06 01:47:37;;;;;;;24.77;14.20;;;;;;;5.93;100.00;100317.66;5090087;28;20064;-59
2024/01/06 01:50:03;;;;;;;23.02;13.32;;;;;;;5.88;100.00;100309.97;5089877;28;20119;-59
2024/01/06 01:52:29;;;;;;;23.40;13.70;;;;;;;5.91;100.00;100312.44;5090169;28;20054;-59
2024/01/06 01:54:56;;;;;;;24.55;14.52;;;;;;;5.93;100.00;100322.94;5088428;28;20073;-59
2024/01/06 01:57:24;;;;;;;27.02;13.63;;;;;;;5.91;100.00;100322.13;5089730;28;20388;-59
2024/01/06 01:59:50;;;;;;;21.83;12.75;;;;;;;5.94;100.00;100332.56;5089019;28;20391;-59
2024/01/06 02:02:17;;;;;;;19.85;12.40;;;;;;;5.87;100.00;100326.72;5090209;28;20475;-59
2024/01/06 02:04:42;;;;;;;18.17;11.65;;;;;;;5.90;100.00;100328.34;5090501;28;20027;-59
2024/01/06 02:07:07;;;;;;;22.58;13.05;;;;;;;5.88;100.00;100330.19;5088967;28;20028;-59
2024/01/06 02:09:33;;;;;;;22.23;12.50;;;;;;;5.78;100.00;100318.44;5088841;28;20418;-59
2024/01/06 02:11:58;;;;;;;20.23;12.98;;;;;;;5.84;100.00;100333.94;5089702;28;20143;-59
2024/01/06 02:14:24;;;;;;;21.95;11.52;;;;;;;5.73;100.00;100318.66;5088591;28;20024;-59
2024/01/06 02:16:49;;;;;;;19.30;11.98;;;;;;;5.73;100.00;100331.00;5089886;28;20016;-58
2024/01/06 02:19:17;;;;;;;19.75;12.68;;;;;;;5.78;100.00;100344.81;5089936;28;20024;-59
2024/01/06 02:21:44;;;;;;;18.55;11.90;;;;;;;5.75;100.00;100350.25;5089895;28;20472;-59
2024/01/06 02:24:10;;;;;;;21.38;12.68;;;;;;;5.69;100.00;100360.19;5090034;28;20024;-59
2024/01/06 02:26:35;;;;;;;16.98;11.30;;;;;;;5.66;100.00;100354.22;5090275;28;20031;-59
2024/01/06 02:29:06;;;;;;;16.70;11.55;;;;;;;5.62;100.00;100365.88;5074573;28;20060;-59
2024/01/06 02:31:31;;;;;;;18.58;10.57;;;;;;;5.60;100.00;100370.34;5093639;28;20032;-59
2024/01/06 02:33:59;;;;;;;15.77;11.45;;;;;;;5.55;100.00;100367.06;5092005;28;20016;-59
2024/01/06 02:36:24;;;;;;;15.88;10.80;;;;;;;5.47;100.00;100372.72;5093517;28;20031;-59
2024/01/06 02:38:49;;;;;;;15.95;10.43;;;;;;;5.41;100.00;100368.63;5091972;28;20042;-59
2024/01/06 02:41:15;;;;;;;12.10;8.80;;;;;;;5.40;100.00;100373.97;5092648;28;20028;-59
2024/01/06 02:43:40;;;;;;;15.30;9.15;;;;;;;5.46;100.00;100387.69;5093750;28;20446;-59
2024/01/06 02:46:07;;;;;;;11.15;8.52;;;;;;;5.44;100.00;100386.94;5093586;28;20027;-59
2024/01/06 02:48:32;;;;;;;12.68;8.35;;;;;;;5.43;100.00;100398.41;5091835;28;20028;-59
2024/01/06 02:50:58;;;;;;;10.50;7.80;;;;;;;5.42;100.00;100391.44;5093366;28;20470;-59
2024/01/06 02:53:25;;;;;;;11.73;8.40;;;;;;;5.43;100.00;100405.47;5093053;28;20050;-59
2024/01/06 02:55:51;;;;;;;11.48;8.38;;;;;;;5.41;100.00;100404.69;5099400;28;20032;-59
2024/01/06 02:58:16;;;;;;;11.50;8.60;;;;;;;5.40;100.00;100401.19;5093839;28;20023;-59
2024/01/06 03:00:41;;;;;;;11.35;8.25;;;;;;;5.45;100.00;100416.81;5090508;28;20020;-59
2024/01/06 03:03:07;;;;;;;14.27;9.10;;;;;;;5.37;100.00;100409.25;5093540;28;20065;-59
2024/01/06 03:05:32;;;;;;;11.88;9.02;;;;;;;5.49;100.00;100428.06;5093238;28;20016;-59
2024/01/06 03:07:57;;;;;;;12.77;9.73;;;;;;;5.44;100.00;100426.50;5092780;28;20386;-59
2024/01/06 03:10:23;;;;;;;13.32;9.65;;;;;;;5.43;100.00;100435.31;5091889;28;20073;-59
2024/01/06 03:12:48;;;;;;;14.35;9.75;;;;;;;5.42;100.00;100428.34;5092688;28;20498;-59
2024/01/06 03:15:14;;;;;;;11.95;8.85;;;;;;;5.39;100.00;100431.13;5092805;28;20150;-59
2024/01/06 03:17:39;;;;;;;12.88;8.73;;;;;;;5.47;100.00;100443.94;5092662;28;20027;-59
2024/01/06 03:20:05;;;;;;;11.30;8.25;;;;;;;5.45;100.00;100453.72;5092745;28;20113;-59
2024/01/06 03:22:31;;;;;;;12.98;8.48;;;;;;;5.35;100.00;100439.25;5091305;28;20027;-59
2024/01/06 03:24:56;;;;;;;14.25;9.20;;;;;;;5.39;100.00;100454.88;5090223;28;20012;-59
2024/01/06 03:27:21;;;;;;;16.02;8.75;;;;;;;5.41;100.00;100454.78;5092529;28;20039;-58
2024/01/06 03:29:47;;;;;;;14.43;9.48;;;;;;;5.40;100.00;100450.44;5092481;28;20421;-59
2024/01/06 03:32:12;;;;;;;11.35;8.13;;;;;;;5.39;100.00;100460.16;5092702;28;20016;-59
2024/01/06 03:34:37;;;;;;;11.23;7.53;;;;;;;5.36;100.00;100455.03;5091191;28;20038;-59
2024/01/06 03:37:03;;;;;;;10.10;7.95;;;;;;;5.40;100.00;100472.38;5090716;28;20016;-59
2024/01/06 03:39:28;;;;;;;10.60;7.30;;;;;;;5.38;100.00;100470.75;5091774;28;20024;-59
2024/01/06 03:41:57;;;;;;;13.13;8.90;;;;;;;5.28;100.00;100454.53;5092152;28;20434;-59
2024/01/06 03:44:22;;;;;;;11.25;7.97;;;;;;;5.29;100.00;100465.91;5092239;28;20027;-59
2024/01/06 03:46:48;;;;;;;10.95;8.50;;;;;;;5.35;100.00;100478.81;5091848;28;20024;-59
2024/01/06 03:49:13;;;;;;;9.57;7.55;;;;;;;5.33;100.00;100481.53;5091018;28;20546;-59
2024/01/06 03:51:38;;;;;;;10.93;7.65;;;;;;;5.31;100.00;100490.44;5090839;28;20027;-59
2024/01/06 03:54:04;;;;;;;10.07;7.70;;;;;;;5.30;100.00;100486.94;5091975;28;20033;-59
2024/01/06 03:56:29;;;;;;;11.13;6.68;;;;;;;5.19;100.00;100471.63;5091507;28;20475;-59
2024/01/06 03:58:54;;;;;;;12.68;8.25;;;;;;;5.28;100.00;100485.31;5090482;28;20356;-59
2024/01/06 04:01:20;;;;;;;13.85;8.25;;;;;;;5.29;100.00;100495.78;5091962;28;20106;-59
2024/01/06 04:03:46;;;;;;;11.15;7.43;;;;;;;5.11;100.00;100483.44;5091701;28;20016;-59
2024/01/06 04:06:11;;;;;;;9.63;7.70;;;;;;;5.03;100.00;100494.38;5091837;28;20043;-59
2024/01/06 04:08:37;;;;;;;10.45;7.60;;;;;;;5.07;100.00;100497.72;5090273;28;20016;-58
2024/01/06 04:11:02;;;;;;;10.07;8.05;;;;;;;5.06;100.00;100498.63;5091206;28;20107;-58
2024/01/06 04:13:28;;;;;;;8.80;6.80;;;;;;;5.07;100.00;100503.84;5090471;28;20089;-59
2024/01/06 04:15:53;;;;;;;9.07;7.78;;;;;;;5.06;100.00;100495.97;5072409;28;20013;-59
2024/01/06 04:18:19;;;;;;;8.77;7.50;;;;;;;5.00;100.00;100495.38;5091395;28;20059;-59
2024/01/06 04:20:44;;;;;;;12.32;8.80;;;;;;;5.07;100.00;100502.97;5091540;28;20016;-59
2024/01/06 04:23:09;;;;;;;10.75;8.30;;;;;;;5.02;100.00;100500.53;5091509;28;20023;-59
2024/01/06 04:25:35;;;;;;;13.25;8.52;;;;;;;4.95;100.00;100504.41;5091195;28;20028;-59
2024/01/06 04:28:00;;;;;;;10.23;7.28;;;;;;;4.95;100.00;100514.94;5089825;28;20373;-59
2024/01/06 04:30:28;;;;;;;9.82;7.78;;;;;;;4.95;100.00;100512.31;5091556;28;20399;-59
2024/01/06 04:32:53;;;;;;;11.52;8.25;;;;;;;4.97;100.00;100520.97;5087848;28;20482;-59
2024/01/06 04:35:21;;;;;;;11.20;8.38;;;;;;;5.01;100.00;100519.94;5091534;28;20112;-59
2024/01/06 04:37:47;;;;;;;12.70;7.97;;;;;;;5.03;100.00;100518.09;5089484;28;20105;-59
2024/01/06 04:40:13;;;;;;;9.40;7.93;;;;;;;5.00;100.00;100523.50;5090709;28;20074;-59
2024/01/06 04:42:38;;;;;;;10.80;8.25;;;;;;;4.91;100.00;100514.22;5091424;28;20077;-59
2024/01/06 04:45:04;;;;;;;10.65;8.43;;;;;;;5.00;100.00;100524.34;5089994;28;20031;-59
2024/01/06 04:47:30;;;;;;;9.95;7.90;;;;;;;4.97;100.00;100536.78;5090560;28;20031;-59
2024/01/06 04:49:56;;;;;;;8.35;6.97;;;;;;;4.90;100.00;100536.22;5089108;28;20436;-59
2024/01/06 04:52:22;;;;;;;10.10;7.05;;;;;;;4.87;100.00;100541.63;5089372;28;20051;-59
2024/01/06 04:54:47;;;;;;;8.75;7.07;;;;;;;4.85;100.00;100548.72;5090642;28;20059;-58
2024/01/06 04:57:13;;;;;;;9.25;7.47;;;;;;;4.85;100.00;100545.25;5089763;28;20028;-59
2024/01/06 04:59:39;;;;;;;7.82;6.45;;;;;;;4.87;100.00;100551.31;5090822;28;20031;-59
2024/01/06 05:02:04;;;;;;;8.20;7.13;;;;;;;4.87;100.00;100554.78;5090826;28;20020;-59
2024/01/06 05:04:32;;;;;;;6.82;6.10;;;;;;;4.76;100.00;100557.03;5090992;28;20028;-59
2024/01/06 05:06:57;;;;;;;8.13;6.95;;;;;;;4.74;100.00;100559.75;5090287;28;20115;-59
2024/01/06 05:09:22;;;;;;;6.93;6.07;;;;;;;4.64;100.00;100557.56;5089806;28;20103;-59
2024/01/06 05:11:48;;;;;;;5.63;5.10;;;;;;;4.57;100.00;100566.69;5090000;28;20023;-59
2024/01/06 05:14:13;;;;;;;7.50;6.72;;;;;;;4.59;100.00;100565.69;5088811;28;20103;-59
2024/01/06 05:16:38;;;;;;;6.85;5.43;;;;;;;4.58;100.00;100569.22;5090297;28;20440;-59
2024/01/06 05:19:04;;;;;;;6.72;5.90;;;;;;;4.60;100.00;100580.56;5089148;28;20052;-58
2024/01/06 05:21:30;;;;;;;6.30;5.13;;;;;;;4.62;100.00;100575.22;5090264;28;20479;-59
2024/01/06 05:23:55;;;;;;;7.70;4.90;;;;;;;4.55;100.00;100577.25;5090105;28;20077;-58
2024/01/06 05:26:21;;;;;;;6.28;5.68;;;;;;;4.45;100.00;100574.16;5088926;28;20043;-59
2024/01/06 05:28:46;;;;;;;5.75;5.15;;;;;;;4.54;100.00;100583.47;5090163;28;20554;-59
2024/01/06 05:31:11;;;;;;;6.07;5.50;;;;;;;4.54;100.00;100594.00;5089260;28;20478;-59
2024/01/06 05:33:37;;;;;;;5.35;4.90;;;;;;;4.54;100.00;100591.38;5089384;28;20063;-58
2024/01/06 05:36:02;;;;;;;5.78;5.00;;;;;;;4.50;100.00;100589.75;5088993;28;20028;-58
2024/01/06 05:38:28;;;;;;;6.10;4.65;;;;;;;4.46;100.00;100596.09;5089008;28;20027;-59
2024/01/06 05:40:53;;;;;;;5.90;5.22;;;;;;;4.43;100.00;100598.84;5088665;28;20047;-58
2024/01/06 05:43:18;;;;;;;6.95;5.28;;;;;;;4.45;100.00;100599.66;5089191;28;20475;-59
2024/01/06 05:45:44;;;;;;;5.93;5.32;;;;;;;4.48;100.00;100595.09;5090305;28;20055;-58
2024/01/06 05:48:10;;;;;;;4.78;4.38;;;;;;;4.44;100.00;100598.81;5089883;28;20027;-59
2024/01/06 05:50:39;;;;;;;4.50;4.10;;;;;;;4.50;100.00;100618.72;5089940;28;20554;-59
2024/01/06 05:53:04;;;;;;;7.20;4.85;;;;;;;4.52;100.00;100612.47;5088880;28;20020;-59
2024/01/06 05:55:32;;;;;;;5.47;4.90;;;;;;;4.55;100.00;100617.63;5089858;28;20089;-59
2024/01/06 05:57:57;;;;;;;7.28;5.80;;;;;;;4.57;100.00;100614.09;5090224;28;20016;-59
2024/01/06 06:00:23;;;;;;;9.55;6.20;;;;;;;4.60;100.00;100630.59;5092629;28;20027;-59
2024/01/06 06:02:49;;;;;;;6.15;5.55;;;;;;;4.51;100.00;100608.16;5092532;28;20510;-59
2024/01/06 06:05:17;;;;;;;6.95;5.30;;;;;;;4.57;100.00;100624.63;5092933;28;20056;-59
2024/01/06 06:07:44;;;;;;;6.60;5.85;;;;;;;4.49;100.00;100609.97;5094010;28;20031;-59
2024/01/06 06:10:11;;;;;;;6.97;5.38;;;;;;;4.51;100.00;100621.31;5092339;28;20026;-59
2024/01/06 06:12:37;;;;;;;6.53;5.80;;;;;;;4.57;100.00;100633.38;5092663;28;20028;-59
2024/01/06 06:15:03;;;;;;;6.50;5.65;;;;;;;4.52;100.00;100637.97;5092476;28;20043;-59
2024/01/06 06:17:30;;;;;;;5.93;5.18;;;;;;;4.54;100.00;100650.16;5093836;28;20020;-59
2024/01/06 06:19:57;;;;;;;6.53;5.50;;;;;;;4.50;100.00;100650.31;5092421;28;20495;-59
2024/01/06 06:22:23;;;;;;;5.47;4.90;;;;;;;4.49;100.00;100653.88;5093867;28;20036;-59
2024/01/06 06:24:50;;;;;;;5.93;5.35;;;;;;;4.41;100.00;100656.84;5093180;28;20487;-59
2024/01/06 06:27:17;;;;;;;7.43;5.82;;;;;;;4.39;100.00;100669.22;5090550;28;20123;-59
2024/01/06 06:29:44;;;;;;;6.72;5.97;;;;;;;4.40;100.00;100672.69;5092268;28;20130;-59
2024/01/06 06:32:10;;;;;;;6.80;6.10;;;;;;;4.40;100.00;100670.06;5093704;28;20040;-59
2024/01/06 06:34:35;;;;;;;8.07;6.82;;;;;;;4.38;100.00;100674.53;5093172;28;20054;-59
2024/01/06 06:37:01;;;;;;;6.97;6.22;;;;;;;4.31;100.00;100669.50;5093681;28;20028;-58
2024/01/06 06:39:27;;;;;;;6.70;6.07;;;;;;;4.36;100.00;100682.50;5093571;28;20022;-59
2024/01/06 06:41:52;;;;;;;8.32;6.57;;;;;;;4.36;100.00;100679.88;5092492;28;20035;-58
2024/01/06 06:44:20;;;;;;;7.07;6.38;;;;;;;4.37;100.00;100686.00;5093103;28;20123;-59
2024/01/06 06:46:45;;;;;;;8.43;6.43;;;;;;;4.39;100.00;100689.44;5091752;28;20054;-59
2024/01/06 06:49:11;;;;;;;8.85;6.95;;;;;;;4.40;100.00;100691.97;5093038;28;20055;-59
2024/01/06 06:51:36;;;;;;;8.63;7.18;;;;;;;4.40;100.00;100691.13;5092434;28;20008;-59
2024/01/06 06:54:02;;;;;;;7.55;6.20;;;;;;;4.37;100.00;100699.16;5093324;28;20035;-59
2024/01/06 06:56:27;;;;;;;7.85;6.45;;;;;;;4.38;100.00;100706.13;5092818;28;20012;-59
2024/01/06 06:58:52;;;;;;;9.40;6.93;;;;;;;4.40;100.00;100713.03;5089806;28;20102;-59
2024/01/06 07:01:18;;;;;;;9.07;7.05;;;;;;;4.45;100.00;100718.16;5091574;28;20043;-59
2024/01/06 07:03:48;;;;;;;9.43;6.35;;;;;;;4.44;100.00;100713.78;5093333;28;20490;-58
2024/01/06 07:06:14;;;;;;;8.15;6.68;;;;;;;4.51;100.00;100731.91;5092947;28;20107;-59
2024/01/06 07:08:41;;;;;;;10.93;7.38;;;;;;;4.55;100.00;100735.28;5093429;28;20046;-58
2024/01/06 07:11:07;;;;;;;9.50;6.63;;;;;;;4.52;100.00;100730.13;5090439;28;20116;-59
2024/01/06 07:13:32;;;;;;;9.70;6.47;;;;;;;4.48;100.00;100741.72;5091696;28;20107;-59
2024/01/06 07:15:58;;;;;;;7.65;6.45;;;;;;;4.48;100.00;100747.84;5092472;28;20028;-59
2024/01/06 07:18:24;;;;;;;8.13;6.20;;;;;;;4.45;100.00;100736.56;5091542;28;20103;-59
2024/01/06 07:20:50;;;;;;;8.50;6.68;;;;;;;4.50;100.00;100747.75;5092526;28;20107;-59
2024/01/06 07:23:15;;;;;;;8.23;6.80;;;;;;;4.39;100.00;100732.41;5093240;28;20103;-59
2024/01/06 07:25:41;;;;;;;7.57;6.20;;;;;;;4.49;100.00;100751.31;5092320;28;20102;-58
2024/01/06 07:28:08;;;;;;;9.88;6.85;;;;;;;4.46;100.00;100759.34;5091443;28;20503;-59
2024/01/06 07:30:33;;;;;;;8.20;6.25;;;;;;;4.47;100.00;100758.41;5092640;28;20061;-58
2024/01/06 07:33:02;;;;;;;9.02;6.95;;;;;;;4.51;100.00;100757.41;5092336;28;20028;-59
2024/01/06 07:35:28;;;;;;;11.82;7.85;;;;;;;4.52;100.00;100756.47;5092453;28;20016;-58
2024/01/06 07:37:54;;;;;;;11.68;9.13;;;;;;;4.52;100.00;100761.72;5091306;28;20015;-59
2024/01/06 07:40:19;;;;;;;9.23;7.47;;;;;;;4.45;100.00;100745.31;5090481;28;20399;-58
2024/01/06 07:42:44;;;;;;;8.38;6.85;;;;;;;4.52;100.00;100769.63;5091026;28;20058;-59
2024/01/06 07:45:10;;;;;;;11.60;7.82;;;;;;;4.48;100.00;100768.91;5091297;28;20066;-58
2024/01/06 07:47:35;;;;;;;10.02;7.82;;;;;;;4.46;100.00;100769.88;5091690;28;20077;-58
2024/01/06 07:50:05;;;;;;;11.43;7.45;;;;;;;4.39;100.00;100761.38;5091851;28;20032;-58
2024/01/06 07:52:30;;;;;;;9.82;7.20;;;;;;;4.45;100.00;100783.97;5092029;28;20475;-58
2024/01/06 07:54:55;;;;;;;14.15;8.65;;;;;;;4.33;100.00;100772.13;5090566;28;20173;-60
2024/01/06 07:57:21;;;;;;;10.18;7.20;;;;;;;4.42;100.00;100784.94;5091151;28;20020;-58
2024/01/06 07:59:46;;;;;;;12.25;8.55;;;;;;;4.40;100.00;100783.28;5091290;28;20123;-59
2024/01/06 08:02:12;;;;;;;14.25;9.68;;;;;;;4.37;100.00;100781.63;5091494;28;20375;-59
2024/01/06 08:04:37;;;;;;;19.75;9.05;;;;;;;4.36;100.00;100794.88;5092007;28;20020;-59
2024/01/06 08:07:03;;;;;;;11.20;8.23;;;;;;;4.33;100.00;100791.41;5091472;28;20109;-59
2024/01/06 08:09:28;;;;;;;11.25;7.80;;;;;;;4.28;100.00;100795.16;5091472;28;20024;-59
2024/01/06 08:11:53;;;;;;;13.98;8.85;;;;;;;4.37;100.00;100815.00;5091573;28;20015;-59
2024/01/06 08:14:19;;;;;;;11.65;9.00;;;;;;;4.35;100.00;100817.69;5091111;28;20020;-58
2024/01/06 08:16:47;;;;;;;9.88;8.43;;;;;;;4.39;100.00;100821.06;5088960;28;20386;-59
2024/01/06 08:19:13;;;;;;;10.27;7.45;;;;;;;4.39;100.00;100828.97;5089527;28;20024;-59
2024/01/06 08:21:38;;;;;;;10.77;7.70;;;;;;;4.35;100.00;100824.72;5089106;28;20024;-59
2024/01/06 08:24:04;;;;;;;11.73;7.78;;;;;;;4.38;100.00;100829.88;5089913;28;20026;-59
2024/01/06 08:26:29;;;;;;;11.85;8.90;;;;;;;4.36;100.00;100845.75;5090752;28;20494;-59
2024/01/06 08:28:57;;;;;;;10.52;7.82;;;;;;;4.33;100.00;100836.19;5090462;28;20196;-59
2024/01/06 08:31:23;;;;;;;11.38;7.47;;;;;;;4.36;100.00;100847.53;5089107;28;20024;-58
2024/01/06 08:33:48;;;;;;;14.23;7.45;;;;;;;4.29;100.00;100834.59;5088764;28;20024;-59
2024/01/06 08:36:16;;;;;;;12.02;9.15;;;;;;;4.30;100.00;100838.06;5089909;28;20028;-58
2024/01/06 08:38:44;;;;;;;12.30;8.45;;;;;;;4.22;100.00;100838.34;5090062;28;20023;-58
2024/01/06 08:41:09;;;;;;;10.15;7.97;;;;;;;4.35;100.00;100853.69;5087162;28;20383;-59
2024/01/06 08:43:35;;;;;;;12.88;7.70;;;;;;;4.35;100.00;100862.44;5088645;28;20035;-59
2024/01/06 08:46:00;;;;;;;14.45;9.15;;;;;;;4.30;100.00;100857.34;5090071;28;20063;-59
2024/01/06 08:48:26;;;;;;;12.43;8.45;;;;;;;4.26;100.00;100866.25;5069246;28;20020;-59
2024/01/06 08:50:51;;;;;;;12.05;9.20;;;;;;;4.13;100.00;100854.47;5090086;28;20494;-59
2024/01/06 08:53:16;;;;;;;16.13;8.90;;;;;;;4.25;100.00;100872.44;5090840;28;20076;-59
2024/01/06 08:55:42;;;;;;;15.10;9.63;;;;;;;4.24;100.00;100878.66;5090159;28;20024;-59
2024/01/06 08:58:07;;;;;;;15.27;9.65;;;;;;;4.20;100.00;100890.19;5090239;28;20032;-58
2024/01/06 09:00:33;;;;;;;12.23;8.40;;;;;;;4.13;100.00;100893.97;5088859;28;20040;-59
2024/01/06 09:02:59;;;;;;;11.23;8.57;;;;;;;4.07;100.00;100894.19;5088020;28;20038;-59
2024/01/06 09:05:25;;;;;;;12.63;9.18;;;;;;;4.08;100.00;100895.88;5089309;28;20024;-59
2024/01/06 09:07:50;;;;;;;11.35;8.90;;;;;;;4.04;100.00;100891.66;5089475;28;20031;-59
2024/01/06 09:10:19;;;;;;;13.45;9.10;;;;;;;4.00;100.00;100890.03;5086996;28;20509;-59
2024/01/06 09:12:47;;;;;;;12.00;8.57;;;;;;;4.13;100.00;100904.50;5087051;28;20484;-59
2024/01/06 09:15:13;;;;;;;14.13;9.38;;;;;;;4.17;100.00;100908.72;5090322;28;20024;-59
2024/01/06 09:17:38;;;;;;;12.75;8.95;;;;;;;4.21;100.00;100905.06;5089978;28;20047;-59
2024/01/06 09:20:04;;;;;;;14.52;8.25;;;;;;;4.21;100.00;100918.25;5089063;28;20035;-59
2024/01/06 09:22:29;;;;;;;10.85;7.78;;;;;;;4.15;100.00;100913.19;5089172;28;20038;-59
2024/01/06 09:24:55;;;;;;;11.95;9.18;;;;;;;4.16;100.00;100922.81;5088972;28;20099;-59
2024/01/06 09:27:20;;;;;;;14.68;8.68;;;;;;;4.14;100.00;100924.63;5088866;28;20036;-59
2024/01/06 09:29:46;;;;;;;10.52;8.57;;;;;;;4.16;100.00;100925.44;5088207;28;20048;-59
2024/01/06 09:32:12;;;;;;;14.38;8.45;;;;;;;4.16;100.00;100922.81;5088851;28;20035;-59
2024/01/06 09:34:38;;;;;;;17.77;9.45;;;;;;;4.21;100.00;100930.56;5089567;28;20043;-59
2024/01/06 09:37:03;;;;;;;11.00;9.05;;;;;;;4.19;100.00;100937.63;5090427;28;20019;-59
2024/01/06 09:39:31;;;;;;;10.32;8.27;;;;;;;4.16;100.00;100938.59;5089286;28;20425;-59
2024/01/06 09:41:57;;;;;;;13.07;9.57;;;;;;;4.18;100.00;100949.09;5087186;28;20051;-58
2024/01/06 09:44:23;;;;;;;14.95;8.52;;;;;;;4.20;100.00;100950.72;5088271;28;20064;-58
2024/01/06 09:46:49;;;;;;;15.20;9.73;;;;;;;4.23;100.00;100949.75;5089844;28;20032;-58
2024/01/06 09:49:22;;;;;;;14.98;10.73;;;;;;;4.15;100.00;100950.03;5088656;28;20032;-58
2024/01/06 09:51:51;;;;;;;12.57;8.60;;;;;;;4.20;100.00;100966.50;5089603;28;20172;-59
2024/01/06 09:54:24;;;;;;;13.15;9.30;;;;;;;4.20;100.00;100968.28;5089418;28;20051;-59
2024/01/06 09:56:49;;;;;;;15.13;10.40;;;;;;;4.18;100.00;100976.25;5089615;28;20482;-58
2024/01/06 09:59:15;;;;;;;9.13;7.68;;;;;;;4.22;100.00;100974.38;5072188;28;20035;-58
2024/01/06 10:01:41;;;;;;;10.23;8.05;;;;;;;4.22;100.00;100969.97;5090074;28;20032;-59
2024/01/06 10:04:07;;;;;;;11.50;7.80;;;;;;;4.16;100.00;100966.69;5086615;28;20028;-58
2024/01/06 10:06:32;;;;;;;10.25;8.23;;;;;;;4.12;100.00;100978.22;5092574;28;20032;-59
2024/01/06 10:08:58;;;;;;;11.10;8.23;;;;;;;4.13;100.00;100990.50;5090276;28;20111;-59
2024/01/06 10:11:24;;;;;;;12.23;8.65;;;;;;;4.05;100.00;100982.84;5090298;28;20432;-59
2024/01/06 10:13:56;;;;;;;14.93;8.27;;;;;;;4.10;100.00;100997.56;5088682;28;20443;-59
2024/01/06 10:16:22;;;;;;;10.65;7.78;;;;;;;4.12;100.00;101002.78;5089446;28;20031;-59
2024/01/06 10:18:47;;;;;;;11.35;7.80;;;;;;;4.11;100.00;101003.69;5089911;28;20024;-59
2024/01/06 10:21:17;;;;;;;11.13;8.38;;;;;;;4.11;100.00;101008.94;5089837;28;20038;-59
2024/01/06 10:23:45;;;;;;;9.68;7.72;;;;;;;4.10;100.00;101012.50;5090773;28;20024;-59
2024/01/06 10:26:14;;;;;;;9.85;7.90;;;;;;;4.05;100.00;100999.47;5089603;28;20362;-59
2024/01/06 10:28:41;;;;;;;13.98;8.45;;;;;;;4.11;100.00;101008.94;5090548;28;20458;-58
2024/01/06 10:31:10;;;;;;;11.30;8.77;;;;;;;4.13;100.00;101009.75;5088415;28;20483;-59
2024/01/06 10:33:35;;;;;;;11.52;8.68;;;;;;;4.07;100.00;101000.31;5090755;28;20031;-59
2024/01/06 10:36:03;;;;;;;12.40;8.52;;;;;;;4.15;100.00;101012.34;5089361;28;20032;-58
2024/01/06 10:38:29;;;;;;;13.35;8.10;;;;;;;4.17;100.00;101011.38;5088940;28;20394;-59
2024/01/06 10:41:07;;;;;;;11.77;8.13;;;;;;;4.19;100.00;101019.22;5087773;28;20055;-58
2024/01/06 10:43:36;;;;;;;9.85;8.02;;;;;;;4.20;100.00;101015.69;5089587;28;20028;-59
2024/01/06 10:46:04;;;;;;;12.25;7.88;;;;;;;4.21;100.00;101014.78;5088857;28;20058;-59
2024/01/06 10:48:33;;;;;;;11.88;8.68;;;;;;;4.23;100.00;101024.31;5093147;28;20383;-59
2024/01/06 10:50:58;;;;;;;10.65;7.97;;;;;;;4.22;100.00;101024.38;5092879;28;20027;-59
2024/01/06 10:53:26;;;;;;;13.30;9.10;;;;;;;4.24;100.00;101017.31;5090121;28;20043;-59
2024/01/06 10:55:55;;;;;;;11.60;8.95;;;;;;;4.26;100.00;101015.47;5089247;28;20024;-59
2024/01/06 10:58:22;;;;;;;11.30;7.88;;;;;;;4.30;100.00;101020.59;5090228;28;20026;-59
2024/01/06 11:00:47;;;;;;;11.55;8.05;;;;;;;4.29;100.00;101024.16;5092001;28;20495;-59
2024/01/06 11:03:14;;;;;;;10.00;8.07;;;;;;;4.28;100.00;101027.66;5092044;28;20051;-59
2024/01/06 11:05:42;;;;;;;12.05;7.57;;;;;;;4.23;100.00;101032.22;5091305;28;21014;-59
2024/01/06 11:08:08;;;;;;;11.10;7.95;;;;;;;4.15;100.00;101015.84;5091497;28;20102;-59
2024/01/06 11:10:36;;;;;;;12.20;8.25;;;;;;;4.22;100.00;101030.50;5092683;28;20185;-59